Time;durP1;ratioP1;P1;durP2;ratioP2;P2;SDS_P1;SDS_P2;PMS_P1;PMS_P2;Temp;Humidity;BMP_temperature;BMP_pressure;BME280_temperature;BME280_humidity;BME280_pressure;Samples;Min_cycle;Max_cycle;Signal;HPM_P1;HPM_P2
2022/12/01 00:02:14;;;;;;;70.77;25.90;;;;;;;4.95;100.00;101277.94;5084851;28;20480;-68
2022/12/01 00:04:41;;;;;;;64.20;25.60;;;;;;;5.06;100.00;101272.94;5085639;28;20547;-70
2022/12/01 00:07:08;;;;;;;76.80;27.33;;;;;;;5.15;100.00;101273.38;5083114;28;20484;-69
2022/12/01 00:12:18;;;;;;;67.27;26.57;;;;;;;4.94;100.00;101275.38;5087938;28;20519;-68
2022/12/01 00:14:53;;;;;;;63.13;25.43;;;;;;;4.94;100.00;101278.03;5083834;28;20492;-71
2022/12/01 00:17:21;;;;;;;56.40;27.23;;;;;;;5.15;100.00;101268.94;5087276;28;20514;-71
2022/12/01 00:19:48;;;;;;;61.50;28.07;;;;;;;4.96;100.00;101265.53;5089433;28;20472;-71
2022/12/01 00:22:14;;;;;;;59.73;25.33;;;;;;;5.00;100.00;101269.72;5082790;28;20542;-70
2022/12/01 00:24:41;;;;;;;59.10;26.40;;;;;;;5.00;100.00;101261.78;5084229;28;20548;-70
2022/12/01 00:27:07;;;;;;;56.37;23.90;;;;;;;5.01;100.00;101263.50;5085523;28;20507;-68
2022/12/01 00:29:34;;;;;;;55.57;25.77;;;;;;;5.17;100.00;101264.41;5085156;28;20590;-70
2022/12/01 00:32:01;;;;;;;57.30;24.13;;;;;;;5.23;100.00;101263.25;5083354;28;21051;-69
2022/12/01 00:34:29;;;;;;;55.00;23.87;;;;;;;5.24;100.00;101271.13;5083759;28;20489;-70
2022/12/01 00:36:55;;;;;;;59.33;24.60;;;;;;;4.98;100.00;101263.66;5082775;28;20504;-70
2022/12/01 00:39:22;;;;;;;60.57;25.37;;;;;;;4.98;100.00;101261.00;5086748;28;20945;-70
2022/12/01 00:41:49;;;;;;;58.77;26.10;;;;;;;4.72;100.00;101261.44;5082920;28;20536;-70
2022/12/01 00:44:15;;;;;;;61.57;25.87;;;;;;;4.85;100.00;101268.75;5096958;28;20448;-68
2022/12/01 00:46:42;;;;;;;54.67;24.27;;;;;;;4.82;100.00;101263.59;5081257;28;20511;-67
2022/12/01 00:49:11;;;;;;;59.17;26.47;;;;;;;5.01;100.00;101260.84;5082839;28;20517;-70
2022/12/01 00:51:39;;;;;;;53.83;23.93;;;;;;;5.28;100.00;101275.31;5082986;28;20476;-67
2022/12/01 00:54:06;;;;;;;53.47;24.67;;;;;;;5.02;100.00;101273.19;5093081;28;20480;-66
2022/12/01 00:56:32;;;;;;;63.67;25.80;;;;;;;4.84;100.00;101275.84;5085858;28;20498;-68
2022/12/01 00:58:59;;;;;;;53.47;25.90;;;;;;;5.08;100.00;101272.84;5082804;28;20479;-70
2022/12/01 01:01:26;;;;;;;61.23;28.50;;;;;;;5.09;100.00;101274.56;5082397;28;20511;-70
2022/12/01 01:03:52;;;;;;;54.00;24.03;;;;;;;5.12;100.00;101277.06;5083520;28;20463;-70
2022/12/01 01:06:19;;;;;;;69.53;26.60;;;;;;;5.21;100.00;101276.59;5081845;28;20504;-70
2022/12/01 01:08:47;;;;;;;57.43;25.53;;;;;;;5.13;100.00;101273.47;5099784;28;20455;-70
2022/12/01 01:11:13;;;;;;;57.73;26.97;;;;;;;4.92;100.00;101271.94;5090134;28;20536;-70
2022/12/01 01:13:40;;;;;;;65.27;28.03;;;;;;;5.01;100.00;101282.06;5082569;28;20460;-70
2022/12/01 01:16:10;;;;;;;77.07;29.27;;;;;;;4.85;100.00;101282.84;5088437;28;20511;-69
2022/12/01 01:18:36;;;;;;;68.07;28.77;;;;;;;4.94;100.00;101288.63;5084159;28;20480;-69
2022/12/01 01:21:05;;;;;;;79.40;29.97;;;;;;;4.90;100.00;101286.13;5094169;28;20484;-69
2022/12/01 01:23:32;;;;;;;70.37;29.27;;;;;;;5.06;100.00;101295.94;5098017;28;20447;-70
2022/12/01 01:26:03;;;;;;;78.33;29.63;;;;;;;4.85;100.00;101292.59;5089732;28;20508;-70
2022/12/01 01:28:30;;;;;;;85.33;30.60;;;;;;;4.85;100.00;101292.59;5083968;28;21123;-68
2022/12/01 01:30:56;;;;;;;73.60;31.20;;;;;;;4.96;100.00;101294.69;5099135;28;20542;-70
2022/12/01 01:33:23;;;;;;;80.80;29.90;;;;;;;4.89;100.00;101294.13;5087176;28;20476;-70
2022/12/01 01:35:49;;;;;;;76.37;29.83;;;;;;;4.95;100.00;101299.16;5082076;28;20868;-71
2022/12/01 01:38:16;;;;;;;73.27;29.97;;;;;;;5.06;100.00;101310.03;5096412;28;20479;-70
2022/12/01 01:40:44;;;;;;;84.17;31.00;;;;;;;4.87;100.00;101309.28;5088056;28;20578;-68
2022/12/01 01:43:15;;;;;;;73.63;30.37;;;;;;;4.94;100.00;101310.66;5092762;28;20814;-70
2022/12/01 01:45:42;;;;;;;79.33;30.90;;;;;;;4.99;100.00;101305.13;5096123;28;20987;-70
2022/12/01 01:48:09;;;;;;;87.07;30.43;;;;;;;5.21;100.00;101304.91;5097220;28;20807;-70
2022/12/01 01:50:36;;;;;;;97.50;31.07;;;;;;;4.93;100.00;101313.38;5100689;28;20483;-69
2022/12/01 01:53:04;;;;;;;90.23;32.57;;;;;;;4.84;100.00;101305.00;5091333;28;20551;-69
2022/12/01 01:55:33;;;;;;;77.70;30.70;;;;;;;5.03;100.00;101304.03;5095191;28;20589;-70
2022/12/01 01:58:00;;;;;;;88.67;34.80;;;;;;;4.76;100.00;101307.16;5084208;28;20515;-68
2022/12/01 02:00:28;;;;;;;81.40;30.40;;;;;;;4.85;100.00;101308.50;5093050;28;20472;-68
2022/12/01 02:02:57;;;;;;;77.70;27.03;;;;;;;4.89;100.00;101304.75;5098879;28;20974;-67
2022/12/01 02:05:25;;;;;;;78.60;31.23;;;;;;;5.04;100.00;101303.97;5081004;28;20527;-69
2022/12/01 02:07:53;;;;;;;85.37;30.43;;;;;;;4.77;100.00;101305.38;5081873;28;20452;-69
2022/12/01 02:10:22;;;;;;;85.33;32.27;;;;;;;4.90;100.00;101309.97;5081663;28;20465;-69
2022/12/01 02:13:04;;;;;;;80.20;31.07;;;;;;;4.98;100.00;101300.75;5081640;28;20436;-69
2022/12/01 02:15:37;;;;;;;97.13;32.53;;;;;;;4.88;100.00;101298.59;5081704;28;20463;-68
2022/12/01 02:18:16;;;;;;;83.67;30.30;;;;;;;5.10;100.00;101302.78;5088437;28;20454;-70
2022/12/01 02:20:59;;;;;;;95.87;31.47;;;;;;;5.11;100.00;101298.34;5081461;28;20526;-70
2022/12/01 02:24:07;;;;;;;96.67;33.23;;;;;;;4.98;100.00;101303.41;5077052;28;20467;-69
2022/12/01 02:26:39;;;;;;;81.87;29.13;;;;;;;5.07;100.00;101301.16;5084635;28;20511;-69
2022/12/01 02:29:26;;;;;;;105.60;33.00;;;;;;;4.96;100.00;101292.88;5081702;28;20445;-68
2022/12/01 02:31:58;;;;;;;87.67;30.60;;;;;;;4.92;100.00;101298.44;5054847;28;20579;-69
2022/12/01 02:34:28;;;;;;;80.67;30.53;;;;;;;4.71;100.00;101296.78;5087844;28;20527;-69
2022/12/01 02:36:57;;;;;;;79.20;31.50;;;;;;;4.87;100.00;101288.06;5080213;28;20517;-68
2022/12/01 02:39:29;;;;;;;86.53;31.97;;;;;;;4.89;100.00;101291.50;5081753;28;20949;-69
2022/12/01 02:42:02;;;;;;;88.27;32.37;;;;;;;4.85;100.00;101300.53;5089761;28;20542;-69
2022/12/01 02:44:32;;;;;;;97.97;32.13;;;;;;;4.68;100.00;101291.63;5099254;28;20459;-70
2022/12/01 02:47:04;;;;;;;96.50;31.60;;;;;;;4.77;100.00;101292.13;5091026;28;20500;-70
2022/12/01 02:49:33;;;;;;;92.37;31.40;;;;;;;4.98;100.00;101295.47;5081477;28;20472;-70
2022/12/01 02:52:00;;;;;;;97.17;32.33;;;;;;;4.70;100.00;101296.88;5079363;28;20500;-68
2022/12/01 02:54:30;;;;;;;118.10;33.67;;;;;;;4.61;100.00;101292.03;5084796;28;20486;-69
2022/12/01 02:56:56;;;;;;;111.80;33.53;;;;;;;4.71;100.00;101298.59;5090509;28;20483;-70
2022/12/01 02:59:23;;;;;;;107.33;34.20;;;;;;;4.80;100.00;101292.81;5093048;28;20523;-68
2022/12/01 03:02:07;;;;;;;112.00;34.80;;;;;;;4.63;100.00;101300.75;5083569;28;20553;-70
2022/12/01 03:04:44;;;;;;;100.47;32.60;;;;;;;4.56;100.00;101291.41;5081363;28;20480;-70
2022/12/01 03:07:20;;;;;;;91.47;32.20;;;;;;;4.84;100.00;101298.81;5067409;28;20500;-70
2022/12/01 03:09:53;;;;;;;86.77;30.67;;;;;;;4.70;100.00;101304.81;5081930;28;20482;-70
2022/12/01 03:12:23;;;;;;;91.33;32.47;;;;;;;4.83;100.00;101302.41;5089669;28;20502;-70
2022/12/01 03:14:55;;;;;;;81.20;31.80;;;;;;;4.68;100.00;101298.75;5089432;28;20872;-70
2022/12/01 03:17:28;;;;;;;69.73;30.17;;;;;;;4.79;100.00;101299.06;5080225;28;20519;-66
2022/12/01 03:19:57;;;;;;;86.33;32.47;;;;;;;4.68;100.00;101301.38;5084695;28;20471;-70
2022/12/01 03:22:28;;;;;;;88.47;32.00;;;;;;;4.77;100.00;101297.41;5099077;28;20543;-69
2022/12/01 03:24:56;;;;;;;93.43;31.60;;;;;;;4.70;100.00;101303.03;5100608;28;20471;-69
2022/12/01 03:27:25;;;;;;;92.10;32.77;;;;;;;4.64;100.00;101294.53;5086043;28;20508;-69
2022/12/01 03:29:54;;;;;;;102.20;32.60;;;;;;;4.62;100.00;101293.75;5080321;28;20956;-68
2022/12/01 03:32:27;;;;;;;103.70;36.00;;;;;;;4.81;100.00;101297.19;5081932;28;20631;-70
2022/12/01 03:34:57;;;;;;;84.57;34.73;;;;;;;4.80;100.00;101292.81;5077297;28;20448;-69
2022/12/01 03:37:29;;;;;;;101.67;34.50;;;;;;;4.61;100.00;101287.59;5085750;28;20476;-69
2022/12/01 03:39:57;;;;;;;84.67;32.87;;;;;;;4.71;100.00;101288.84;5095315;28;20436;-69
2022/12/01 03:42:25;;;;;;;79.33;32.87;;;;;;;4.88;100.00;101290.66;5083777;28;20696;-69
2022/12/01 03:44:54;;;;;;;93.27;35.33;;;;;;;4.84;100.00;101283.81;5090486;28;20486;-69
2022/12/01 03:47:23;;;;;;;90.37;34.60;;;;;;;4.86;100.00;101279.28;5093289;28;20526;-70
2022/12/01 03:49:52;;;;;;;95.63;35.60;;;;;;;4.84;100.00;101288.22;5100138;28;20470;-70
2022/12/01 03:52:27;;;;;;;85.43;35.50;;;;;;;4.84;100.00;101289.09;5100237;28;20571;-69
2022/12/01 03:55:02;;;;;;;104.37;38.73;;;;;;;4.90;100.00;101285.28;5097300;28;20451;-70
2022/12/01 03:57:32;;;;;;;90.17;35.57;;;;;;;4.99;100.00;101286.59;5083018;28;20514;-68
2022/12/01 03:59:59;;;;;;;82.27;35.47;;;;;;;4.98;100.00;101290.16;5091898;28;20574;-68
2022/12/01 04:02:27;;;;;;;101.70;34.83;;;;;;;4.79;100.00;101292.88;5097898;28;20521;-69
2022/12/01 04:04:55;;;;;;;99.00;34.37;;;;;;;4.82;100.00;101298.03;5102801;28;21011;-70
2022/12/01 04:07:22;;;;;;;90.73;35.43;;;;;;;4.76;100.00;101301.88;5102638;28;20545;-69
2022/12/01 04:09:48;;;;;;;106.13;37.53;;;;;;;4.65;100.00;101304.19;5097002;28;20431;-70
2022/12/01 04:12:31;;;;;;;85.40;36.10;;;;;;;4.76;100.00;101301.03;5093349;28;20515;-70
2022/12/01 04:14:59;;;;;;;105.77;39.10;;;;;;;4.76;100.00;101298.38;5086343;28;21450;-70
2022/12/01 04:17:25;;;;;;;104.00;36.10;;;;;;;4.75;100.00;101300.13;5083298;28;20570;-69
2022/12/01 04:19:52;;;;;;;98.90;37.13;;;;;;;4.74;100.00;101306.41;5086755;28;20466;-70
2022/12/01 04:22:20;;;;;;;106.40;38.43;;;;;;;4.79;100.00;101304.38;5094859;28;20488;-70
2022/12/01 04:24:47;;;;;;;100.63;38.50;;;;;;;4.71;100.00;101306.53;5087673;28;20466;-69
2022/12/01 04:27:14;;;;;;;94.37;35.53;;;;;;;4.84;100.00;101302.34;5087269;28;20577;-69
2022/12/01 04:29:40;;;;;;;104.77;36.50;;;;;;;4.76;100.00;101307.16;5096626;28;20494;-70
2022/12/01 04:32:07;;;;;;;105.60;38.83;;;;;;;4.69;100.00;101308.41;5092286;28;20508;-70
2022/12/01 04:34:33;;;;;;;100.83;39.00;;;;;;;4.61;100.00;101302.63;5083820;28;20512;-69
2022/12/01 04:37:00;;;;;;;114.10;41.50;;;;;;;4.65;100.00;101307.72;5097662;28;20514;-70
2022/12/01 04:39:28;;;;;;;102.13;37.43;;;;;;;4.64;100.00;101299.84;5083803;28;21289;-70
2022/12/01 04:41:54;;;;;;;107.03;39.93;;;;;;;4.57;100.00;101303.72;5099600;28;20575;-70
2022/12/01 04:44:21;;;;;;;106.57;42.43;;;;;;;4.67;100.00;101300.53;5095836;28;20575;-70
2022/12/01 04:46:47;;;;;;;107.90;40.60;;;;;;;4.66;100.00;101297.97;5085265;28;20503;-68
2022/12/01 04:49:14;;;;;;;106.43;40.93;;;;;;;4.68;100.00;101299.59;5102115;28;20455;-69
2022/12/01 04:51:41;;;;;;;112.80;43.30;;;;;;;4.67;100.00;101300.53;5090657;28;20492;-70
2022/12/01 04:54:07;;;;;;;119.07;43.27;;;;;;;4.52;100.00;101299.50;5094553;28;20872;-70
2022/12/01 04:56:35;;;;;;;99.97;39.13;;;;;;;4.78;100.00;101294.69;5086329;28;20504;-70
2022/12/01 04:59:02;;;;;;;103.40;40.80;;;;;;;4.63;100.00;101296.31;5082434;28;20887;-70
2022/12/01 05:01:28;;;;;;;102.10;40.93;;;;;;;4.76;100.00;101296.56;5082040;28;20519;-70
2022/12/01 05:03:55;;;;;;;124.23;46.07;;;;;;;4.69;100.00;101292.53;5083219;28;20721;-68
2022/12/01 05:06:24;;;;;;;125.40;46.67;;;;;;;4.61;100.00;101303.47;5089922;28;20513;-69
2022/12/01 05:08:51;;;;;;;124.00;48.27;;;;;;;4.38;100.00;101295.84;5101913;28;20474;-70
2022/12/01 05:11:18;;;;;;;136.30;46.77;;;;;;;4.53;100.00;101290.63;5098375;28;20930;-68
2022/12/01 05:13:47;;;;;;;149.40;50.50;;;;;;;4.59;100.00;101302.69;5086717;28;20511;-70
2022/12/01 05:16:16;;;;;;;155.70;55.30;;;;;;;4.50;100.00;101298.72;5088680;28;20480;-70
2022/12/01 05:18:43;;;;;;;152.17;53.47;;;;;;;4.51;100.00;101300.44;5100742;28;20487;-68
2022/12/01 05:21:10;;;;;;;153.93;54.17;;;;;;;4.57;100.00;101299.28;5087540;28;20584;-69
2022/12/01 05:23:37;;;;;;;150.80;57.47;;;;;;;4.63;100.00;101296.31;5082820;28;20450;-70
2022/12/01 05:26:05;;;;;;;143.93;52.07;;;;;;;4.69;100.00;101306.59;5079192;28;20505;-70
2022/12/01 05:28:32;;;;;;;130.00;52.80;;;;;;;4.57;100.00;101301.94;5076033;28;20529;-70
2022/12/01 05:31:00;;;;;;;133.90;50.90;;;;;;;4.51;100.00;101304.88;5075577;28;20491;-70
2022/12/01 05:33:28;;;;;;;150.23;53.60;;;;;;;4.64;100.00;101315.72;5085665;28;20523;-69
2022/12/01 05:35:54;;;;;;;151.23;54.90;;;;;;;4.56;100.00;101316.09;5075187;28;20519;-68
2022/12/01 05:38:21;;;;;;;142.87;54.47;;;;;;;4.50;100.00;101311.97;5082115;28;20459;-68
2022/12/01 05:40:52;;;;;;;143.53;55.50;;;;;;;4.63;100.00;101311.34;5080694;28;20584;-68
2022/12/01 05:43:19;;;;;;;159.33;53.03;;;;;;;4.67;100.00;101312.91;5087048;28;20453;-67
2022/12/01 05:45:45;;;;;;;148.63;55.40;;;;;;;4.60;100.00;101315.03;5085648;28;20509;-65
2022/12/01 05:48:13;;;;;;;155.73;55.43;;;;;;;4.52;100.00;101314.53;5066240;28;20461;-62
2022/12/01 05:50:40;;;;;;;150.47;53.17;;;;;;;4.65;100.00;101315.66;5075034;28;20499;-62
2022/12/01 05:53:07;;;;;;;150.63;55.90;;;;;;;4.36;100.00;101314.44;5093178;28;20524;-63
2022/12/01 05:55:34;;;;;;;137.57;55.07;;;;;;;4.65;100.00;101325.38;5069061;28;21077;-65
2022/12/01 05:58:01;;;;;;;140.27;55.27;;;;;;;4.59;100.00;101323.03;5082451;28;20474;-66
2022/12/01 06:00:28;;;;;;;147.07;52.70;;;;;;;4.59;100.00;101325.69;5077158;28;20468;-63
2022/12/01 06:02:54;;;;;;;135.20;54.70;;;;;;;4.45;100.00;101324.56;5080897;28;20551;-63
2022/12/01 06:05:22;;;;;;;123.07;55.10;;;;;;;4.34;100.00;101335.69;5079459;28;20588;-62
2022/12/01 06:07:49;;;;;;;134.10;55.97;;;;;;;4.55;100.00;101332.94;5081214;28;20452;-63
2022/12/01 06:10:16;;;;;;;125.57;54.87;;;;;;;4.58;100.00;101345.16;5081359;28;20437;-62
2022/12/01 06:12:42;;;;;;;134.33;55.60;;;;;;;4.56;100.00;101333.78;5080589;28;20857;-62
2022/12/01 06:15:11;;;;;;;130.97;59.47;;;;;;;4.38;100.00;101338.19;5080069;28;20476;-63
2022/12/01 06:17:38;;;;;;;138.10;55.13;;;;;;;4.38;100.00;101335.53;5080339;28;20480;-64
2022/12/01 06:20:06;;;;;;;137.43;57.57;;;;;;;4.32;100.00;101332.25;5076860;28;20445;-63
2022/12/01 06:22:34;;;;;;;122.60;53.67;;;;;;;4.44;100.00;101337.88;5077714;28;20518;-63
2022/12/01 06:25:00;;;;;;;123.80;50.67;;;;;;;4.20;100.00;101330.19;5093295;28;20472;-64
2022/12/01 06:27:27;;;;;;;127.23;53.93;;;;;;;4.33;100.00;101349.00;5096036;28;20562;-64
2022/12/01 06:29:54;;;;;;;134.03;56.67;;;;;;;4.30;100.00;101347.34;5088322;28;20895;-63
2022/12/01 06:32:20;;;;;;;125.33;58.27;;;;;;;4.19;100.00;101346.16;5077989;28;20548;-62
2022/12/01 06:34:47;;;;;;;159.93;76.13;;;;;;;4.37;100.00;101349.69;5072711;28;20472;-67
2022/12/01 06:37:15;;;;;;;130.10;55.27;;;;;;;4.21;100.00;101347.78;5079695;28;20515;-69
2022/12/01 06:39:43;;;;;;;123.83;53.47;;;;;;;4.08;100.00;101359.88;5086346;28;20443;-69
2022/12/01 06:42:10;;;;;;;122.97;51.83;;;;;;;4.07;100.00;101359.00;5089551;28;20562;-67
2022/12/01 06:44:37;;;;;;;127.17;55.83;;;;;;;4.04;100.00;101359.16;5062249;28;20457;-65
2022/12/01 06:47:04;;;;;;;113.70;51.60;;;;;;;4.17;100.00;101363.88;5068617;28;21117;-67
2022/12/01 06:49:31;;;;;;;121.57;56.90;;;;;;;4.31;100.00;101358.81;5067352;28;20507;-67
2022/12/01 06:51:57;;;;;;;120.60;53.87;;;;;;;4.24;100.00;101362.69;5090676;28;21911;-68
2022/12/01 06:54:24;;;;;;;107.70;51.63;;;;;;;4.54;100.00;101368.28;5080320;28;20474;-67
2022/12/01 06:56:52;;;;;;;105.60;48.43;;;;;;;4.50;100.00;101367.56;5100338;28;20524;-67
2022/12/01 06:59:19;;;;;;;110.43;49.70;;;;;;;4.41;100.00;101368.03;5092435;28;20452;-64
2022/12/01 07:01:46;;;;;;;110.93;49.80;;;;;;;4.40;100.00;101366.28;5098475;28;20995;-64
2022/12/01 07:04:12;;;;;;;105.43;51.03;;;;;;;4.40;100.00;101368.94;5100046;28;20447;-67
2022/12/01 07:06:39;;;;;;;102.50;48.33;;;;;;;4.50;100.00;101362.28;5096096;28;20539;-68
2022/12/01 07:09:06;;;;;;;103.77;51.63;;;;;;;4.52;100.00;101372.81;5099627;28;20493;-66
2022/12/01 07:11:35;;;;;;;111.37;47.97;;;;;;;4.70;100.00;101366.63;5099706;28;20495;-67
2022/12/01 07:14:03;;;;;;;104.10;46.97;;;;;;;4.71;100.00;101380.72;5094991;28;20478;-68
2022/12/01 07:16:30;;;;;;;104.13;48.37;;;;;;;4.60;100.00;101377.72;5081663;28;20477;-68
2022/12/01 07:18:58;;;;;;;97.07;46.43;;;;;;;4.65;100.00;101373.94;5082463;28;20956;-63
2022/12/01 07:21:25;;;;;;;92.03;47.10;;;;;;;4.59;100.00;101381.31;5092489;28;20475;-68
2022/12/01 07:23:51;;;;;;;112.10;50.17;;;;;;;4.49;100.00;101381.72;5096366;28;20471;-64
2022/12/01 07:26:18;;;;;;;141.77;62.50;;;;;;;4.49;100.00;101381.72;5085388;28;20539;-68
2022/12/01 07:28:45;;;;;;;98.10;49.50;;;;;;;4.43;100.00;101379.41;5084035;28;20527;-67
2022/12/01 07:31:15;;;;;;;100.43;47.03;;;;;;;4.44;100.00;101389.03;5074451;28;20563;-67
2022/12/01 07:33:41;;;;;;;108.63;47.60;;;;;;;4.46;100.00;101381.03;5073152;28;20447;-69
2022/12/01 07:36:09;;;;;;;84.63;44.63;;;;;;;4.51;100.00;101387.84;5071679;28;20565;-69
2022/12/01 07:38:37;;;;;;;94.70;46.53;;;;;;;4.41;100.00;101383.03;5070274;28;20496;-67
2022/12/01 07:41:04;;;;;;;95.70;45.80;;;;;;;4.32;100.00;101384.31;5076544;28;20478;-67
2022/12/01 07:43:31;;;;;;;81.23;43.00;;;;;;;4.30;100.00;101379.09;5083162;28;20544;-67
2022/12/01 07:46:03;;;;;;;86.43;45.60;;;;;;;4.53;100.00;101388.63;5083729;28;20517;-67
2022/12/01 07:48:32;;;;;;;89.00;42.47;;;;;;;4.53;100.00;101385.09;5100031;28;20506;-67
2022/12/01 07:50:58;;;;;;;89.43;46.43;;;;;;;4.25;100.00;101385.56;5082566;28;20494;-66
2022/12/01 07:53:25;;;;;;;98.50;49.07;;;;;;;4.26;100.00;101387.28;5102747;28;20443;-68
2022/12/01 07:55:51;;;;;;;89.80;43.27;;;;;;;4.35;100.00;101389.47;5101744;28;20478;-66
2022/12/01 07:58:18;;;;;;;90.20;46.50;;;;;;;4.38;100.00;101392.00;5089671;28;20520;-67
2022/12/01 08:00:45;;;;;;;89.83;45.63;;;;;;;4.29;100.00;101393.28;5081995;28;20492;-66
2022/12/01 08:03:11;;;;;;;85.77;46.00;;;;;;;4.45;100.00;101390.78;5089211;28;20495;-67
2022/12/01 08:05:39;;;;;;;95.87;48.20;;;;;;;4.41;100.00;101383.91;5092735;28;20460;-67
2022/12/01 08:08:06;;;;;;;96.43;44.07;;;;;;;4.32;100.00;101384.31;5087554;28;20488;-67
2022/12/01 08:10:33;;;;;;;79.77;45.30;;;;;;;4.41;100.00;101385.69;5082514;28;20528;-67
2022/12/01 08:12:59;;;;;;;91.60;43.80;;;;;;;4.34;100.00;101395.72;5083314;28;20448;-67
2022/12/01 08:15:26;;;;;;;90.13;45.47;;;;;;;4.36;100.00;101399.16;5099799;28;20571;-65
2022/12/01 08:17:53;;;;;;;93.87;43.07;;;;;;;4.35;100.00;101397.44;5085698;28;20888;-67
2022/12/01 08:20:20;;;;;;;88.53;42.53;;;;;;;4.28;100.00;101399.50;5090754;28;20474;-66
2022/12/01 08:22:48;;;;;;;97.50;47.37;;;;;;;4.48;100.00;101400.38;5101717;28;20514;-66
2022/12/01 08:25:15;;;;;;;86.00;44.57;;;;;;;4.56;100.00;101402.63;5080697;28;20524;-67
2022/12/01 08:27:41;;;;;;;91.57;48.00;;;;;;;4.45;100.00;101400.50;5091732;28;21216;-66
2022/12/01 08:30:09;;;;;;;81.17;44.17;;;;;;;4.60;100.00;101406.84;5097161;28;20496;-66
2022/12/01 08:32:36;;;;;;;95.97;47.90;;;;;;;4.45;100.00;101408.44;5081907;28;20931;-67
2022/12/01 08:35:02;;;;;;;82.20;44.23;;;;;;;4.65;100.00;101411.00;5081846;28;20448;-66
2022/12/01 08:37:29;;;;;;;90.03;44.00;;;;;;;4.70;100.00;101411.66;5086948;28;20511;-67
2022/12/01 08:39:57;;;;;;;93.97;45.93;;;;;;;4.76;100.00;101410.50;5081554;28;20447;-66
2022/12/01 08:42:24;;;;;;;86.03;44.80;;;;;;;4.84;100.00;101415.41;5085334;28;21008;-67
2022/12/01 08:44:50;;;;;;;97.03;47.37;;;;;;;4.79;100.00;101420.06;5084036;28;20475;-67
2022/12/01 08:47:17;;;;;;;91.37;46.77;;;;;;;4.83;100.00;101424.31;5080744;28;20475;-65
2022/12/01 08:49:43;;;;;;;99.40;48.00;;;;;;;4.85;100.00;101425.94;5087524;28;20443;-67
2022/12/01 08:52:10;;;;;;;93.03;47.07;;;;;;;4.93;100.00;101412.31;5085637;28;20498;-66
2022/12/01 08:54:37;;;;;;;88.73;42.43;;;;;;;4.72;100.00;101422.16;5081631;28;20445;-66
2022/12/01 08:57:05;;;;;;;86.93;43.73;;;;;;;4.66;100.00;101420.66;5075452;28;20497;-67
2022/12/01 08:59:31;;;;;;;88.20;46.30;;;;;;;4.45;100.00;101414.59;5075489;28;20484;-67
2022/12/01 09:01:58;;;;;;;81.87;43.03;;;;;;;4.83;100.00;101417.19;5079395;28;21044;-67
2022/12/01 09:04:25;;;;;;;92.07;45.20;;;;;;;4.61;100.00;101420.03;5066360;28;20449;-66
2022/12/01 09:06:53;;;;;;;84.87;41.67;;;;;;;4.71;100.00;101423.09;5082842;28;20997;-67
2022/12/01 09:09:23;;;;;;;95.97;44.93;;;;;;;4.58;100.00;101421.97;5082556;28;20492;-66
2022/12/01 09:11:52;;;;;;;101.00;45.57;;;;;;;4.92;100.00;101421.19;5083412;28;20512;-67
2022/12/01 09:14:21;;;;;;;85.20;45.70;;;;;;;4.86;100.00;101425.00;5087398;28;20450;-67
2022/12/01 09:16:49;;;;;;;89.43;44.03;;;;;;;4.80;100.00;101427.94;5088654;28;20476;-67
2022/12/01 09:19:17;;;;;;;86.00;44.00;;;;;;;4.94;99.81;101431.72;5090318;28;20535;-69
2022/12/01 09:21:44;;;;;;;82.80;43.43;;;;;;;4.93;98.88;101430.00;5081472;28;20479;-67
2022/12/01 09:24:12;;;;;;;86.30;42.47;;;;;;;4.90;99.03;101431.88;5089277;28;20470;-67
2022/12/01 09:26:39;;;;;;;93.97;47.73;;;;;;;4.92;99.06;101426.50;5086606;28;20501;-66
2022/12/01 09:29:08;;;;;;;89.00;44.20;;;;;;;5.07;98.44;101443.44;5081714;28;20472;-65
2022/12/01 09:31:36;;;;;;;92.93;44.50;;;;;;;4.86;98.48;101442.69;5082830;28;21224;-66
2022/12/01 09:34:05;;;;;;;95.73;44.63;;;;;;;5.05;98.83;101432.91;5082030;28;20436;-67
2022/12/01 09:36:33;;;;;;;84.70;41.13;;;;;;;5.01;99.13;101435.78;5081251;28;20468;-67
2022/12/01 09:39:00;;;;;;;86.50;42.10;;;;;;;5.01;99.00;101446.38;5086090;28;20462;-67
2022/12/01 09:41:30;;;;;;;87.67;43.00;;;;;;;5.15;98.28;101430.66;5081096;28;20963;-67
2022/12/01 09:44:04;;;;;;;79.57;42.83;;;;;;;4.66;98.50;101435.69;5065008;28;20496;-65
2022/12/01 09:46:34;;;;;;;81.17;41.33;;;;;;;4.68;99.16;101439.97;5078599;28;20471;-67
2022/12/01 09:49:04;;;;;;;82.67;43.60;;;;;;;4.96;98.97;101433.34;5080069;28;20445;-70
2022/12/01 09:51:33;;;;;;;80.50;40.33;;;;;;;4.97;97.17;101428.94;5082894;28;20511;-67
2022/12/01 09:54:02;;;;;;;76.60;40.17;;;;;;;4.78;95.80;101428.97;5093195;28;21094;-68
2022/12/01 09:56:30;;;;;;;74.30;37.47;;;;;;;5.07;95.53;101422.25;5096383;28;20556;-66
2022/12/01 09:58:59;;;;;;;83.03;40.93;;;;;;;5.19;95.08;101424.28;5088510;28;20466;-67
2022/12/01 10:01:39;;;;;;;69.20;37.10;;;;;;;5.11;94.54;101429.09;5079298;28;20502;-67
2022/12/01 10:04:10;;;;;;;65.00;37.70;;;;;;;5.24;93.11;101419.59;5081107;28;20468;-68
2022/12/01 10:06:39;;;;;;;65.73;36.47;;;;;;;5.30;91.63;101423.72;5080695;28;20574;-66
2022/12/01 10:09:17;;;;;;;68.90;36.60;;;;;;;4.72;92.79;101425.69;5079991;28;20481;-67
2022/12/01 10:11:44;;;;;;;64.73;35.40;;;;;;;5.13;92.83;101421.06;5080801;28;20490;-68
2022/12/01 10:14:15;;;;;;;64.10;34.80;;;;;;;4.82;92.10;101420.78;5079940;28;20429;-68
2022/12/01 10:16:45;;;;;;;63.37;33.47;;;;;;;5.17;92.06;101418.16;5096749;28;20538;-68
2022/12/01 10:19:18;;;;;;;69.93;34.87;;;;;;;5.22;90.73;101412.63;5094418;28;20478;-68
2022/12/01 10:22:03;;;;;;;63.63;36.10;;;;;;;5.08;91.21;101408.88;5079646;28;20484;-67
2022/12/01 10:24:42;;;;;;;65.17;34.37;;;;;;;5.19;90.57;101412.78;5079872;28;20447;-68
2022/12/01 10:27:15;;;;;;;59.10;33.80;;;;;;;5.28;89.93;101417.66;5080432;28;20506;-68
2022/12/01 10:29:46;;;;;;;63.87;32.83;;;;;;;5.35;89.07;101410.25;5078591;28;20471;-67
2022/12/01 10:32:17;;;;;;;55.07;31.87;;;;;;;5.38;88.90;101413.59;5083359;28;20506;-68
2022/12/01 10:34:46;;;;;;;60.97;33.00;;;;;;;5.38;88.29;101410.94;5093500;28;20448;-63
2022/12/01 10:37:17;;;;;;;61.53;33.57;;;;;;;5.58;88.18;101407.25;5090407;28;20475;-64
2022/12/01 10:39:46;;;;;;;59.23;32.00;;;;;;;5.53;86.47;101403.13;5080837;28;20452;-64
2022/12/01 10:42:19;;;;;;;57.80;30.80;;;;;;;5.66;86.89;101407.72;5081552;28;20479;-63
2022/12/01 10:44:46;;;;;;;58.10;31.40;;;;;;;6.04;85.43;101401.31;5058205;28;20491;-64
2022/12/01 10:47:18;;;;;;;59.33;29.67;;;;;;;5.96;83.57;101399.09;5059345;28;20547;-64
2022/12/01 10:49:46;;;;;;;54.07;31.00;;;;;;;5.95;83.65;101399.13;5088597;28;20459;-64
2022/12/01 10:52:35;;;;;;;52.03;29.00;;;;;;;5.91;83.33;101398.44;5093329;28;20500;-64
2022/12/01 10:55:02;;;;;;;55.83;30.53;;;;;;;5.78;82.95;101394.72;5087285;28;20463;-64
2022/12/01 10:57:31;;;;;;;59.20;30.07;;;;;;;5.96;82.58;101396.44;5099867;28;20506;-64
2022/12/01 11:00:00;;;;;;;44.70;28.70;;;;;;;6.40;81.92;101389.63;5102920;28;20486;-64
2022/12/01 11:02:29;;;;;;;55.03;33.57;;;;;;;6.41;81.71;101400.16;5103476;28;20577;-64
2022/12/01 11:04:58;;;;;;;56.00;35.93;;;;;;;6.32;83.12;101397.16;5069345;28;20479;-64
2022/12/01 11:07:29;;;;;;;61.83;37.37;;;;;;;6.13;84.04;101394.69;5063003;28;20508;-64
2022/12/01 11:10:14;;;;;;;62.83;36.40;;;;;;;6.09;84.12;101390.44;5093848;28;20480;-64
2022/12/01 11:12:41;;;;;;;55.47;30.90;;;;;;;5.85;83.25;101390.81;5089772;28;20459;-64
2022/12/01 11:15:18;;;;;;;55.60;30.90;;;;;;;5.54;84.67;101389.78;5102547;28;20455;-64
2022/12/01 11:17:45;;;;;;;51.30;29.17;;;;;;;5.51;85.51;101389.09;5087877;28;20466;-64